sensor_id;sensor_type;location;lat;lon;timestamp;pressure;altitude;pressure_sealevel;temperature;humidity
54144;BME280;40050;47.324;18.792;2022-07-24T00:00:30;1004.13;;;25.87;66.03
54144;BME280;40050;47.324;18.792;2022-07-24T00:02:31;1004.19;;;25.90;65.78
54144;BME280;40050;47.324;18.792;2022-07-24T00:04:32;1004.16;;;25.84;65.06
54144;BME280;40050;47.324;18.792;2022-07-24T00:06:33;1004.12;;;25.79;65.62
54144;BME280;40050;47.324;18.792;2022-07-24T00:08:34;1004.20;;;25.70;65.78
54144;BME280;40050;47.324;18.792;2022-07-24T00:10:35;1004.22;;;25.60;65.81
54144;BME280;40050;47.324;18.792;2022-07-24T00:12:36;1004.22;;;25.54;66.35
54144;BME280;40050;47.324;18.792;2022-07-24T00:14:38;1004.24;;;25.51;66.87
54144;BME280;40050;47.324;18.792;2022-07-24T00:16:39;1004.30;;;25.51;66.51
54144;BME280;40050;47.324;18.792;2022-07-24T00:18:40;1004.28;;;25.52;66.76
54144;BME280;40050;47.324;18.792;2022-07-24T00:20:41;1004.23;;;25.48;66.93
54144;BME280;40050;47.324;18.792;2022-07-24T00:22:42;1004.20;;;25.45;66.74
54144;BME280;40050;47.324;18.792;2022-07-24T00:24:43;1004.23;;;25.41;65.79
54144;BME280;40050;47.324;18.792;2022-07-24T00:26:44;1004.30;;;25.43;66.29
54144;BME280;40050;47.324;18.792;2022-07-24T00:28:45;1004.28;;;25.39;65.98
54144;BME280;40050;47.324;18.792;2022-07-24T00:30:46;1004.24;;;25.37;66.28
54144;BME280;40050;47.324;18.792;2022-07-24T00:32:47;1004.23;;;25.38;66.94
54144;BME280;40050;47.324;18.792;2022-07-24T00:34:48;1004.22;;;25.41;66.79
54144;BME280;40050;47.324;18.792;2022-07-24T00:36:49;1004.19;;;25.42;65.37
54144;BME280;40050;47.324;18.792;2022-07-24T00:38:49;1004.14;;;25.38;65.74
54144;BME280;40050;47.324;18.792;2022-07-24T00:40:50;1004.10;;;25.42;65.68
54144;BME280;40050;47.324;18.792;2022-07-24T00:42:51;1004.04;;;25.41;65.39
54144;BME280;40050;47.324;18.792;2022-07-24T00:44:52;1004.00;;;25.40;65.81
54144;BME280;40050;47.324;18.792;2022-07-24T00:46:53;1003.97;;;25.40;65.39
54144;BME280;40050;47.324;18.792;2022-07-24T00:48:54;1003.88;;;25.38;64.91
54144;BME280;40050;47.324;18.792;2022-07-24T00:50:55;1003.84;;;25.41;64.43
54144;BME280;40050;47.324;18.792;2022-07-24T00:52:56;1003.78;;;25.38;64.84
54144;BME280;40050;47.324;18.792;2022-07-24T00:54:58;1003.78;;;25.40;64.69
54144;BME280;40050;47.324;18.792;2022-07-24T00:56:59;1003.80;;;25.39;65.59
54144;BME280;40050;47.324;18.792;2022-07-24T00:59:00;1003.91;;;25.39;66.00
54144;BME280;40050;47.324;18.792;2022-07-24T01:01:01;1003.93;;;25.37;65.74
54144;BME280;40050;47.324;18.792;2022-07-24T01:03:02;1003.91;;;25.34;65.91
54144;BME280;40050;47.324;18.792;2022-07-24T01:05:03;1003.94;;;25.35;66.16
54144;BME280;40050;47.324;18.792;2022-07-24T01:07:05;1003.93;;;25.33;66.24
54144;BME280;40050;47.324;18.792;2022-07-24T01:09:06;1003.95;;;25.34;66.39
54144;BME280;40050;47.324;18.792;2022-07-24T01:11:08;1004.00;;;25.37;66.57
54144;BME280;40050;47.324;18.792;2022-07-24T01:13:09;1003.95;;;25.34;66.51
54144;BME280;40050;47.324;18.792;2022-07-24T01:15:11;1003.96;;;25.33;66.52
54144;BME280;40050;47.324;18.792;2022-07-24T01:17:11;1003.97;;;25.34;66.47
54144;BME280;40050;47.324;18.792;2022-07-24T01:19:13;1003.93;;;25.34;66.36
54144;BME280;40050;47.324;18.792;2022-07-24T01:21:14;1003.92;;;25.33;66.09
54144;BME280;40050;47.324;18.792;2022-07-24T01:23:15;1003.89;;;25.28;66.23
54144;BME280;40050;47.324;18.792;2022-07-24T01:25:16;1003.88;;;25.26;66.20
54144;BME280;40050;47.324;18.792;2022-07-24T01:27:17;1003.78;;;25.22;66.09
54144;BME280;40050;47.324;18.792;2022-07-24T01:29:18;1003.81;;;25.25;66.32
54144;BME280;40050;47.324;18.792;2022-07-24T01:31:19;1003.70;;;25.23;66.55
54144;BME280;40050;47.324;18.792;2022-07-24T01:33:20;1003.70;;;25.24;66.27
54144;BME280;40050;47.324;18.792;2022-07-24T01:35:21;1003.74;;;25.24;66.55
54144;BME280;40050;47.324;18.792;2022-07-24T01:37:22;1003.78;;;25.23;66.53
54144;BME280;40050;47.324;18.792;2022-07-24T01:39:23;1003.84;;;25.22;66.39
54144;BME280;40050;47.324;18.792;2022-07-24T01:41:24;1003.88;;;25.17;66.07
54144;BME280;40050;47.324;18.792;2022-07-24T01:43:25;1003.85;;;25.18;65.72
54144;BME280;40050;47.324;18.792;2022-07-24T01:45:26;1003.74;;;25.18;66.21
54144;BME280;40050;47.324;18.792;2022-07-24T01:47:27;1003.75;;;25.17;66.09
54144;BME280;40050;47.324;18.792;2022-07-24T01:49:28;1003.76;;;25.13;65.85
54144;BME280;40050;47.324;18.792;2022-07-24T01:51:29;1003.92;;;25.13;66.13
54144;BME280;40050;47.324;18.792;2022-07-24T01:53:30;1004.04;;;25.13;66.27
54144;BME280;40050;47.324;18.792;2022-07-24T01:55:31;1004.06;;;25.12;66.01
54144;BME280;40050;47.324;18.792;2022-07-24T01:57:33;1003.97;;;25.08;66.28
54144;BME280;40050;47.324;18.792;2022-07-24T01:59:34;1003.85;;;25.05;66.36
54144;BME280;40050;47.324;18.792;2022-07-24T02:01:35;1003.85;;;25.07;66.67
54144;BME280;40050;47.324;18.792;2022-07-24T02:03:36;1003.92;;;25.07;66.46
54144;BME280;40050;47.324;18.792;2022-07-24T02:05:37;1004.04;;;25.07;66.33
54144;BME280;40050;47.324;18.792;2022-07-24T02:07:41;1004.07;;;25.05;66.44
54144;BME280;40050;47.324;18.792;2022-07-24T02:09:42;1004.11;;;25.08;66.66
54144;BME280;40050;47.324;18.792;2022-07-24T02:11:44;1004.22;;;25.09;66.74
54144;BME280;40050;47.324;18.792;2022-07-24T02:13:45;1004.26;;;25.13;67.08
54144;BME280;40050;47.324;18.792;2022-07-24T02:15:46;1004.24;;;25.13;66.12
54144;BME280;40050;47.324;18.792;2022-07-24T02:17:47;1004.15;;;25.12;66.06
54144;BME280;40050;47.324;18.792;2022-07-24T02:19:48;1004.10;;;25.12;66.28
54144;BME280;40050;47.324;18.792;2022-07-24T02:21:49;1004.10;;;25.15;66.52
54144;BME280;40050;47.324;18.792;2022-07-24T02:23:51;1004.05;;;25.13;66.49
54144;BME280;40050;47.324;18.792;2022-07-24T02:25:52;1004.04;;;25.18;66.83
54144;BME280;40050;47.324;18.792;2022-07-24T02:27:53;1003.96;;;25.18;66.92
54144;BME280;40050;47.324;18.792;2022-07-24T02:29:54;1003.89;;;25.22;66.70
54144;BME280;40050;47.324;18.792;2022-07-24T02:31:55;1003.81;;;25.23;66.66
54144;BME280;40050;47.324;18.792;2022-07-24T02:33:56;1003.65;;;25.24;66.65
54144;BME280;40050;47.324;18.792;2022-07-24T02:35:57;1003.59;;;25.24;66.95
54144;BME280;40050;47.324;18.792;2022-07-24T02:37:58;1003.38;;;25.23;66.94
54144;BME280;40050;47.324;18.792;2022-07-24T02:39:59;1003.19;;;25.21;66.95
54144;BME280;40050;47.324;18.792;2022-07-24T02:42:00;1003.32;;;25.23;66.87
54144;BME280;40050;47.324;18.792;2022-07-24T02:44:01;1003.40;;;25.20;66.75
54144;BME280;40050;47.324;18.792;2022-07-24T02:46:02;1003.36;;;25.16;66.98
54144;BME280;40050;47.324;18.792;2022-07-24T02:48:03;1003.32;;;25.16;67.11
54144;BME280;40050;47.324;18.792;2022-07-24T02:50:05;1003.16;;;25.13;67.33
54144;BME280;40050;47.324;18.792;2022-07-24T02:52:06;1003.07;;;25.10;67.42
54144;BME280;40050;47.324;18.792;2022-07-24T02:54:07;1003.05;;;25.08;67.47
54144;BME280;40050;47.324;18.792;2022-07-24T02:56:08;1003.09;;;25.03;67.39
54144;BME280;40050;47.324;18.792;2022-07-24T02:58:09;1003.08;;;25.02;67.50
54144;BME280;40050;47.324;18.792;2022-07-24T03:00:11;1003.15;;;24.98;67.48
54144;BME280;40050;47.324;18.792;2022-07-24T03:02:13;1003.17;;;24.96;67.29
54144;BME280;40050;47.324;18.792;2022-07-24T03:04:14;1003.26;;;24.95;66.91
54144;BME280;40050;47.324;18.792;2022-07-24T03:06:15;1003.26;;;24.90;66.86
54144;BME280;40050;47.324;18.792;2022-07-24T03:08:16;1003.41;;;24.89;66.97
54144;BME280;40050;47.324;18.792;2022-07-24T03:10:17;1003.40;;;24.86;66.18
54144;BME280;40050;47.324;18.792;2022-07-24T03:12:18;1003.50;;;24.84;66.66
54144;BME280;40050;47.324;18.792;2022-07-24T03:14:19;1003.51;;;24.83;66.60
54144;BME280;40050;47.324;18.792;2022-07-24T03:16:20;1003.51;;;24.78;66.32
54144;BME280;40050;47.324;18.792;2022-07-24T03:18:21;1003.48;;;24.77;66.72
54144;BME280;40050;47.324;18.792;2022-07-24T03:20:23;1003.50;;;24.77;66.65
54144;BME280;40050;47.324;18.792;2022-07-24T03:22:25;1003.43;;;24.76;66.75
54144;BME280;40050;47.324;18.792;2022-07-24T03:24:26;1003.12;;;24.71;66.94
54144;BME280;40050;47.324;18.792;2022-07-24T03:26:27;1002.84;;;24.76;66.78
54144;BME280;40050;47.324;18.792;2022-07-24T03:28:28;1002.89;;;24.76;67.16
54144;BME280;40050;47.324;18.792;2022-07-24T03:30:29;1003.09;;;24.77;67.42
54144;BME280;40050;47.324;18.792;2022-07-24T03:32:30;1003.22;;;24.75;67.87
54144;BME280;40050;47.324;18.792;2022-07-24T03:34:31;1003.33;;;24.77;67.82
54144;BME280;40050;47.324;18.792;2022-07-24T03:36:32;1003.30;;;24.79;67.71
54144;BME280;40050;47.324;18.792;2022-07-24T03:38:33;1003.28;;;24.76;66.87
54144;BME280;40050;47.324;18.792;2022-07-24T03:40:34;1003.47;;;24.79;66.70
54144;BME280;40050;47.324;18.792;2022-07-24T03:42:35;1003.57;;;24.79;66.52
54144;BME280;40050;47.324;18.792;2022-07-24T03:44:37;1003.50;;;24.75;66.56
54144;BME280;40050;47.324;18.792;2022-07-24T03:46:38;1003.55;;;24.73;65.81
54144;BME280;40050;47.324;18.792;2022-07-24T03:48:39;1003.59;;;24.74;66.04
54144;BME280;40050;47.324;18.792;2022-07-24T03:50:39;1003.54;;;24.73;65.66
54144;BME280;40050;47.324;18.792;2022-07-24T03:52:41;1003.59;;;24.74;65.69
54144;BME280;40050;47.324;18.792;2022-07-24T03:54:42;1003.52;;;24.71;66.02
54144;BME280;40050;47.324;18.792;2022-07-24T03:56:42;1003.56;;;24.75;65.82
54144;BME280;40050;47.324;18.792;2022-07-24T03:58:43;1003.46;;;24.75;65.96
54144;BME280;40050;47.324;18.792;2022-07-24T04:00:44;1003.46;;;24.78;66.18
54144;BME280;40050;47.324;18.792;2022-07-24T04:02:46;1003.45;;;24.80;66.14
54144;BME280;40050;47.324;18.792;2022-07-24T04:04:46;1003.47;;;24.81;66.21
54144;BME280;40050;47.324;18.792;2022-07-24T04:06:47;1003.53;;;24.84;66.31
54144;BME280;40050;47.324;18.792;2022-07-24T04:08:48;1003.48;;;24.86;65.83
54144;BME280;40050;47.324;18.792;2022-07-24T04:10:50;1003.47;;;24.89;66.20
54144;BME280;40050;47.324;18.792;2022-07-24T04:12:51;1003.45;;;24.90;66.33
54144;BME280;40050;47.324;18.792;2022-07-24T04:14:52;1003.43;;;24.92;66.54
54144;BME280;40050;47.324;18.792;2022-07-24T04:16:53;1003.49;;;24.92;65.53
54144;BME280;40050;47.324;18.792;2022-07-24T04:18:54;1003.49;;;24.96;65.79
54144;BME280;40050;47.324;18.792;2022-07-24T04:20:55;1003.49;;;24.98;65.65
54144;BME280;40050;47.324;18.792;2022-07-24T04:22:56;1003.47;;;24.98;65.76
54144;BME280;40050;47.324;18.792;2022-07-24T04:24:57;1003.49;;;25.03;65.31
54144;BME280;40050;47.324;18.792;2022-07-24T04:26:58;1003.44;;;25.07;65.76
54144;BME280;40050;47.324;18.792;2022-07-24T04:28:59;1003.51;;;25.05;65.51
54144;BME280;40050;47.324;18.792;2022-07-24T04:31:00;1003.56;;;25.09;65.00
54144;BME280;40050;47.324;18.792;2022-07-24T04:33:01;1003.58;;;25.09;65.31
54144;BME280;40050;47.324;18.792;2022-07-24T04:35:02;1003.65;;;25.11;65.12
54144;BME280;40050;47.324;18.792;2022-07-24T04:37:03;1003.70;;;25.13;65.12
54144;BME280;40050;47.324;18.792;2022-07-24T04:39:04;1003.71;;;25.13;64.99
54144;BME280;40050;47.324;18.792;2022-07-24T04:41:06;1003.79;;;25.17;65.34
54144;BME280;40050;47.324;18.792;2022-07-24T04:43:07;1003.80;;;25.16;65.09
54144;BME280;40050;47.324;18.792;2022-07-24T04:45:09;1003.89;;;25.22;65.34
54144;BME280;40050;47.324;18.792;2022-07-24T04:47:10;1003.91;;;25.21;65.06
54144;BME280;40050;47.324;18.792;2022-07-24T04:49:11;1003.90;;;25.19;65.02
54144;BME280;40050;47.324;18.792;2022-07-24T04:51:12;1003.94;;;25.24;65.12
54144;BME280;40050;47.324;18.792;2022-07-24T04:53:13;1003.96;;;25.31;64.25
54144;BME280;40050;47.324;18.792;2022-07-24T04:55:14;1003.94;;;25.28;64.21
54144;BME280;40050;47.324;18.792;2022-07-24T04:57:15;1003.96;;;25.29;64.10
54144;BME280;40050;47.324;18.792;2022-07-24T04:59:16;1003.94;;;25.29;64.38
54144;BME280;40050;47.324;18.792;2022-07-24T05:01:17;1003.98;;;25.31;63.96
54144;BME280;40050;47.324;18.792;2022-07-24T05:03:19;1004.04;;;25.32;64.27
54144;BME280;40050;47.324;18.792;2022-07-24T05:05:20;1004.00;;;25.31;63.72
54144;BME280;40050;47.324;18.792;2022-07-24T05:07:21;1004.13;;;25.34;64.17
54144;BME280;40050;47.324;18.792;2022-07-24T05:09:22;1004.11;;;25.37;64.18
54144;BME280;40050;47.324;18.792;2022-07-24T05:11:23;1004.18;;;25.42;63.69
54144;BME280;40050;47.324;18.792;2022-07-24T05:13:24;1004.18;;;25.42;64.07
54144;BME280;40050;47.324;18.792;2022-07-24T05:15:25;1004.15;;;25.45;63.83
54144;BME280;40050;47.324;18.792;2022-07-24T05:17:26;1004.15;;;25.44;63.28
54144;BME280;40050;47.324;18.792;2022-07-24T05:19:27;1004.24;;;25.46;63.13
54144;BME280;40050;47.324;18.792;2022-07-24T05:21:28;1004.29;;;25.46;62.97
54144;BME280;40050;47.324;18.792;2022-07-24T05:23:29;1004.26;;;25.48;63.00
54144;BME280;40050;47.324;18.792;2022-07-24T05:25:30;1004.26;;;25.51;62.61
54144;BME280;40050;47.324;18.792;2022-07-24T05:27:31;1004.35;;;25.54;63.23
54144;BME280;40050;47.324;18.792;2022-07-24T05:29:32;1004.32;;;25.59;63.27
54144;BME280;40050;47.324;18.792;2022-07-24T05:31:33;1004.39;;;25.70;63.28
54144;BME280;40050;47.324;18.792;2022-07-24T05:33:35;1004.36;;;25.70;62.98
54144;BME280;40050;47.324;18.792;2022-07-24T05:35:36;1004.44;;;25.78;62.90
54144;BME280;40050;47.324;18.792;2022-07-24T05:37:37;1004.45;;;25.85;62.60
54144;BME280;40050;47.324;18.792;2022-07-24T05:39:38;1004.47;;;25.94;62.30
54144;BME280;40050;47.324;18.792;2022-07-24T05:41:39;1004.50;;;26.04;62.52
54144;BME280;40050;47.324;18.792;2022-07-24T05:43:40;1004.47;;;26.14;62.20
54144;BME280;40050;47.324;18.792;2022-07-24T05:45:41;1004.59;;;26.29;62.33
54144;BME280;40050;47.324;18.792;2022-07-24T05:47:43;1004.64;;;26.43;61.44
54144;BME280;40050;47.324;18.792;2022-07-24T05:49:44;1004.61;;;26.52;61.28
54144;BME280;40050;47.324;18.792;2022-07-24T05:51:45;1004.62;;;26.64;62.10
54144;BME280;40050;47.324;18.792;2022-07-24T05:53:46;1004.60;;;26.79;61.97
54144;BME280;40050;47.324;18.792;2022-07-24T05:55:47;1004.65;;;26.94;61.49
54144;BME280;40050;47.324;18.792;2022-07-24T05:57:48;1004.62;;;27.05;61.27
54144;BME280;40050;47.324;18.792;2022-07-24T05:59:49;1004.66;;;27.20;61.17
54144;BME280;40050;47.324;18.792;2022-07-24T06:01:50;1004.58;;;27.32;59.72
54144;BME280;40050;47.324;18.792;2022-07-24T06:03:52;1004.62;;;27.40;59.56
54144;BME280;40050;47.324;18.792;2022-07-24T06:05:53;1004.68;;;27.51;59.36
54144;BME280;40050;47.324;18.792;2022-07-24T06:07:54;1004.67;;;27.58;58.99
54144;BME280;40050;47.324;18.792;2022-07-24T06:09:55;1004.73;;;27.68;59.18
54144;BME280;40050;47.324;18.792;2022-07-24T06:11:56;1004.72;;;27.80;59.09
54144;BME280;40050;47.324;18.792;2022-07-24T06:13:57;1004.80;;;27.94;58.89
54144;BME280;40050;47.324;18.792;2022-07-24T06:15:59;1004.80;;;28.03;58.08
54144;BME280;40050;47.324;18.792;2022-07-24T06:18:00;1004.79;;;28.17;57.94
54144;BME280;40050;47.324;18.792;2022-07-24T06:20:01;1004.80;;;28.30;57.32
54144;BME280;40050;47.324;18.792;2022-07-24T06:22:02;1004.85;;;28.42;56.56
54144;BME280;40050;47.324;18.792;2022-07-24T06:24:03;1004.89;;;28.52;56.44
54144;BME280;40050;47.324;18.792;2022-07-24T06:26:04;1004.86;;;28.57;55.66
54144;BME280;40050;47.324;18.792;2022-07-24T06:28:05;1004.97;;;28.67;55.67
54144;BME280;40050;47.324;18.792;2022-07-24T06:30:06;1005.00;;;28.82;56.29
54144;BME280;40050;47.324;18.792;2022-07-24T06:32:08;1005.01;;;28.94;56.16
54144;BME280;40050;47.324;18.792;2022-07-24T06:34:09;1005.07;;;29.05;54.41
54144;BME280;40050;47.324;18.792;2022-07-24T06:36:10;1005.07;;;29.15;54.85
54144;BME280;40050;47.324;18.792;2022-07-24T06:38:11;1005.13;;;29.28;53.56
54144;BME280;40050;47.324;18.792;2022-07-24T06:40:13;1005.20;;;29.39;53.98
54144;BME280;40050;47.324;18.792;2022-07-24T06:42:14;1005.21;;;29.50;53.69
54144;BME280;40050;47.324;18.792;2022-07-24T06:44:15;1005.21;;;29.62;52.62
54144;BME280;40050;47.324;18.792;2022-07-24T06:46:16;1005.21;;;29.72;53.26
54144;BME280;40050;47.324;18.792;2022-07-24T06:48:17;1005.15;;;29.86;53.05
54144;BME280;40050;47.324;18.792;2022-07-24T06:50:19;1005.24;;;30.02;52.15
54144;BME280;40050;47.324;18.792;2022-07-24T06:52:20;1005.19;;;30.09;51.79
54144;BME280;40050;47.324;18.792;2022-07-24T06:54:21;1005.26;;;30.26;51.56
54144;BME280;40050;47.324;18.792;2022-07-24T06:56:22;1005.22;;;30.36;51.68
54144;BME280;40050;47.324;18.792;2022-07-24T06:58:23;1005.17;;;30.47;51.76
54144;BME280;40050;47.324;18.792;2022-07-24T07:00:24;1005.18;;;30.63;51.42
54144;BME280;40050;47.324;18.792;2022-07-24T07:02:25;1005.23;;;30.78;50.19
54144;BME280;40050;47.324;18.792;2022-07-24T07:04:27;1005.20;;;30.87;50.04
54144;BME280;40050;47.324;18.792;2022-07-24T07:06:28;1005.19;;;30.96;49.72
54144;BME280;40050;47.324;18.792;2022-07-24T07:08:29;1005.11;;;31.04;50.08
54144;BME280;40050;47.324;18.792;2022-07-24T07:10:30;1005.19;;;31.19;50.78
54144;BME280;40050;47.324;18.792;2022-07-24T07:12:31;1005.16;;;31.33;50.59
54144;BME280;40050;47.324;18.792;2022-07-24T07:14:32;1005.13;;;31.45;49.75
54144;BME280;40050;47.324;18.792;2022-07-24T07:16:33;1005.17;;;31.54;49.13
54144;BME280;40050;47.324;18.792;2022-07-24T07:18:35;1005.14;;;31.58;48.41
54144;BME280;40050;47.324;18.792;2022-07-24T07:20:36;1005.19;;;31.66;49.64
54144;BME280;40050;47.324;18.792;2022-07-24T07:22:37;1005.07;;;31.77;48.03
54144;BME280;40050;47.324;18.792;2022-07-24T07:24:38;1005.13;;;31.92;48.07
54144;BME280;40050;47.324;18.792;2022-07-24T07:26:39;1005.13;;;31.99;46.81
54144;BME280;40050;47.324;18.792;2022-07-24T07:28:41;1005.09;;;32.08;47.78
54144;BME280;40050;47.324;18.792;2022-07-24T07:30:42;1005.14;;;32.27;47.10
54144;BME280;40050;47.324;18.792;2022-07-24T07:32:43;1005.11;;;32.43;46.21
54144;BME280;40050;47.324;18.792;2022-07-24T07:34:44;1005.10;;;32.48;45.76
54144;BME280;40050;47.324;18.792;2022-07-24T07:36:45;1005.09;;;32.58;45.86
54144;BME280;40050;47.324;18.792;2022-07-24T07:38:46;1005.13;;;32.64;45.39
54144;BME280;40050;47.324;18.792;2022-07-24T07:40:47;1005.05;;;32.69;44.78
54144;BME280;40050;47.324;18.792;2022-07-24T07:42:49;1005.07;;;32.79;45.25
54144;BME280;40050;47.324;18.792;2022-07-24T07:44:50;1005.04;;;32.88;45.72
54144;BME280;40050;47.324;18.792;2022-07-24T07:46:51;1005.07;;;32.99;43.71
54144;BME280;40050;47.324;18.792;2022-07-24T07:48:52;1005.06;;;33.04;44.34
54144;BME280;40050;47.324;18.792;2022-07-24T07:50:53;1005.05;;;33.09;42.38
54144;BME280;40050;47.324;18.792;2022-07-24T07:52:54;1005.01;;;33.13;42.56
54144;BME280;40050;47.324;18.792;2022-07-24T07:54:56;1004.97;;;33.17;41.37
54144;BME280;40050;47.324;18.792;2022-07-24T07:56:57;1005.01;;;33.22;41.66
54144;BME280;40050;47.324;18.792;2022-07-24T07:58:58;1004.98;;;33.28;42.13
54144;BME280;40050;47.324;18.792;2022-07-24T08:00:59;1005.08;;;33.36;42.16
54144;BME280;40050;47.324;18.792;2022-07-24T08:03:01;1005.05;;;33.40;42.46
54144;BME280;40050;47.324;18.792;2022-07-24T08:05:02;1005.09;;;33.37;40.33
54144;BME280;40050;47.324;18.792;2022-07-24T08:07:03;1005.13;;;33.35;40.63
54144;BME280;40050;47.324;18.792;2022-07-24T08:09:04;1005.06;;;33.26;40.48
54144;BME280;40050;47.324;18.792;2022-07-24T08:11:06;1005.06;;;33.26;40.56
54144;BME280;40050;47.324;18.792;2022-07-24T08:13:07;1005.08;;;33.30;41.01
54144;BME280;40050;47.324;18.792;2022-07-24T08:15:08;1005.14;;;33.31;41.07
54144;BME280;40050;47.324;18.792;2022-07-24T08:17:10;1005.15;;;33.34;40.32
54144;BME280;40050;47.324;18.792;2022-07-24T08:19:11;1005.08;;;33.28;39.42
54144;BME280;40050;47.324;18.792;2022-07-24T08:21:12;1005.08;;;33.25;39.83
54144;BME280;40050;47.324;18.792;2022-07-24T08:23:13;1005.14;;;33.16;39.87
54144;BME280;40050;47.324;18.792;2022-07-24T08:25:14;1005.12;;;33.05;40.22
54144;BME280;40050;47.324;18.792;2022-07-24T08:27:15;1005.14;;;32.96;41.29
54144;BME280;40050;47.324;18.792;2022-07-24T08:29:16;1005.12;;;32.86;41.20
54144;BME280;40050;47.324;18.792;2022-07-24T08:31:17;1005.18;;;32.90;41.19
54144;BME280;40050;47.324;18.792;2022-07-24T08:33:19;1005.16;;;32.85;41.28
54144;BME280;40050;47.324;18.792;2022-07-24T08:35:20;1005.21;;;32.82;40.75
54144;BME280;40050;47.324;18.792;2022-07-24T08:37:21;1005.28;;;32.76;41.24
54144;BME280;40050;47.324;18.792;2022-07-24T08:39:22;1005.26;;;32.76;42.05
54144;BME280;40050;47.324;18.792;2022-07-24T08:41:24;1005.21;;;32.77;42.44
54144;BME280;40050;47.324;18.792;2022-07-24T08:43:25;1005.28;;;32.89;42.09
54144;BME280;40050;47.324;18.792;2022-07-24T08:45:26;1005.24;;;32.93;41.87
54144;BME280;40050;47.324;18.792;2022-07-24T08:47:27;1005.31;;;32.96;41.12
54144;BME280;40050;47.324;18.792;2022-07-24T08:49:30;1005.34;;;32.96;41.17
54144;BME280;40050;47.324;18.792;2022-07-24T08:51:32;1005.34;;;32.95;41.51
54144;BME280;40050;47.324;18.792;2022-07-24T08:53:33;1005.42;;;32.99;40.54
54144;BME280;40050;47.324;18.792;2022-07-24T08:55:34;1005.35;;;32.93;40.25
54144;BME280;40050;47.324;18.792;2022-07-24T08:57:35;1005.33;;;32.86;40.05
54144;BME280;40050;47.324;18.792;2022-07-24T08:59:36;1005.37;;;32.83;40.95
54144;BME280;40050;47.324;18.792;2022-07-24T09:01:38;1005.39;;;32.86;41.38
54144;BME280;40050;47.324;18.792;2022-07-24T09:03:40;1005.42;;;32.87;41.50
54144;BME280;40050;47.324;18.792;2022-07-24T09:05:57;1005.40;;;33.01;42.21
54144;BME280;40050;47.324;18.792;2022-07-24T09:08:05;1005.38;;;33.06;42.09
54144;BME280;40050;47.324;18.792;2022-07-24T09:10:08;1005.39;;;33.10;42.12
54144;BME280;40050;47.324;18.792;2022-07-24T09:12:11;1005.34;;;33.16;42.28
54144;BME280;40050;47.324;18.792;2022-07-24T09:14:12;1005.39;;;33.35;42.92
54144;BME280;40050;47.324;18.792;2022-07-24T09:16:16;1005.47;;;33.54;43.49
54144;BME280;40050;47.324;18.792;2022-07-24T09:18:31;1005.43;;;33.75;41.76
54144;BME280;40050;47.324;18.792;2022-07-24T09:20:36;1005.30;;;33.83;41.18
54144;BME280;40050;47.324;18.792;2022-07-24T09:22:38;1005.41;;;33.98;40.38
54144;BME280;40050;47.324;18.792;2022-07-24T09:24:40;1005.42;;;34.08;40.36
54144;BME280;40050;47.324;18.792;2022-07-24T09:28:57;1005.39;;;34.11;39.58
54144;BME280;40050;47.324;18.792;2022-07-24T09:31:01;1005.36;;;34.13;39.16
54144;BME280;40050;47.324;18.792;2022-07-24T09:33:20;1005.36;;;34.10;39.45
54144;BME280;40050;47.324;18.792;2022-07-24T09:35:21;1005.38;;;34.08;39.07
54144;BME280;40050;47.324;18.792;2022-07-24T09:37:22;1005.44;;;34.11;39.26
54144;BME280;40050;47.324;18.792;2022-07-24T09:39:27;1005.44;;;34.10;38.98
54144;BME280;40050;47.324;18.792;2022-07-24T09:41:29;1005.43;;;34.08;39.17
54144;BME280;40050;47.324;18.792;2022-07-24T09:43:30;1005.46;;;34.11;38.47
54144;BME280;40050;47.324;18.792;2022-07-24T09:45:36;1005.44;;;34.10;38.36
54144;BME280;40050;47.324;18.792;2022-07-24T09:47:45;1005.45;;;34.08;38.75
54144;BME280;40050;47.324;18.792;2022-07-24T09:49:52;1005.47;;;34.07;38.32
54144;BME280;40050;47.324;18.792;2022-07-24T09:52:10;1005.49;;;34.05;39.19
54144;BME280;40050;47.324;18.792;2022-07-24T09:54:11;1005.51;;;34.06;38.87
54144;BME280;40050;47.324;18.792;2022-07-24T09:56:13;1005.46;;;34.03;38.79
54144;BME280;40050;47.324;18.792;2022-07-24T09:58:17;1005.42;;;34.02;38.39
54144;BME280;40050;47.324;18.792;2022-07-24T10:00:18;1005.50;;;33.98;38.53
54144;BME280;40050;47.324;18.792;2022-07-24T10:02:21;1005.49;;;33.94;38.63
54144;BME280;40050;47.324;18.792;2022-07-24T10:04:26;1005.50;;;33.93;37.44
54144;BME280;40050;47.324;18.792;2022-07-24T10:06:30;1005.49;;;33.89;37.71
54144;BME280;40050;47.324;18.792;2022-07-24T10:08:32;1005.53;;;33.85;37.38
54144;BME280;40050;47.324;18.792;2022-07-24T10:10:33;1005.49;;;33.85;37.56
54144;BME280;40050;47.324;18.792;2022-07-24T10:12:35;1005.47;;;33.85;37.37
54144;BME280;40050;47.324;18.792;2022-07-24T10:14:36;1005.42;;;33.86;37.23
54144;BME280;40050;47.324;18.792;2022-07-24T10:16:39;1005.46;;;33.88;37.21
54144;BME280;40050;47.324;18.792;2022-07-24T10:18:55;1005.46;;;33.96;38.39
54144;BME280;40050;47.324;18.792;2022-07-24T10:21:03;1005.40;;;33.97;37.34
54144;BME280;40050;47.324;18.792;2022-07-24T10:23:06;1005.52;;;34.04;36.97
54144;BME280;40050;47.324;18.792;2022-07-24T10:25:08;1005.45;;;34.10;36.83
54144;BME280;40050;47.324;18.792;2022-07-24T10:27:13;1005.46;;;34.11;36.38
54144;BME280;40050;47.324;18.792;2022-07-24T10:29:22;1005.42;;;34.12;36.70
54144;BME280;40050;47.324;18.792;2022-07-24T10:31:23;1005.49;;;34.19;36.97
54144;BME280;40050;47.324;18.792;2022-07-24T10:33:26;1005.46;;;34.24;37.17
54144;BME280;40050;47.324;18.792;2022-07-24T10:35:27;1005.42;;;34.20;36.78
54144;BME280;40050;47.324;18.792;2022-07-24T10:39:55;1005.47;;;34.28;37.10
54144;BME280;40050;47.324;18.792;2022-07-24T10:41:59;1005.48;;;34.35;36.06
54144;BME280;40050;47.324;18.792;2022-07-24T10:44:17;1005.48;;;34.39;35.90
54144;BME280;40050;47.324;18.792;2022-07-24T10:46:19;1005.50;;;34.45;35.90
54144;BME280;40050;47.324;18.792;2022-07-24T10:48:30;1005.50;;;34.44;35.17